sensor_id;sensor_type;location;lat;lon;timestamp;pressure;altitude;pressure_sealevel;temperature
72278;BMP280;61204;49.980;8.358;2022-09-09T00:02:05;100164.91;;;15.63
72278;BMP280;61204;49.980;8.358;2022-09-09T00:04:58;100154.50;;;15.62
72278;BMP280;61204;49.980;8.358;2022-09-09T00:07:51;100158.66;;;15.63
72278;BMP280;61204;49.980;8.358;2022-09-09T00:10:28;100161.25;;;15.59
72278;BMP280;61204;49.980;8.358;2022-09-09T00:15:43;100150.47;;;15.49
72278;BMP280;61204;49.980;8.358;2022-09-09T00:18:24;100146.66;;;15.40
72278;BMP280;61204;49.980;8.358;2022-09-09T00:21:16;100149.06;;;15.32
72278;BMP280;61204;49.980;8.358;2022-09-09T00:24:10;100152.19;;;15.25
72278;BMP280;61204;49.980;8.358;2022-09-09T00:26:57;100158.84;;;15.20
72278;BMP280;61204;49.980;8.358;2022-09-09T00:29:43;100152.97;;;15.11
72278;BMP280;61204;49.980;8.358;2022-09-09T00:32:20;100155.47;;;15.05
72278;BMP280;61204;49.980;8.358;2022-09-09T00:37:57;100149.91;;;14.90
72278;BMP280;61204;49.980;8.358;2022-09-09T00:40:40;100150.34;;;14.84
72278;BMP280;61204;49.980;8.358;2022-09-09T00:43:32;100155.06;;;14.81
72278;BMP280;61204;49.980;8.358;2022-09-09T00:46:26;100153.34;;;14.74
72278;BMP280;61204;49.980;8.358;2022-09-09T00:49:58;100156.75;;;14.73
72278;BMP280;61204;49.980;8.358;2022-09-09T00:52:41;100158.59;;;14.68
72278;BMP280;61204;49.980;8.358;2022-09-09T00:55:42;100153.25;;;14.56
72278;BMP280;61204;49.980;8.358;2022-09-09T00:58:20;100164.16;;;14.54
72278;BMP280;61204;49.980;8.358;2022-09-09T01:00:50;100161.72;;;14.47
72278;BMP280;61204;49.980;8.358;2022-09-09T01:09:28;100157.16;;;14.38
72278;BMP280;61204;49.980;8.358;2022-09-09T01:12:24;100159.41;;;14.41
72278;BMP280;61204;49.980;8.358;2022-09-09T01:15:21;100155.91;;;14.41
72278;BMP280;61204;49.980;8.358;2022-09-09T01:18:12;100145.59;;;14.41
72278;BMP280;61204;49.980;8.358;2022-09-09T01:20:49;100149.16;;;14.44
72278;BMP280;61204;49.980;8.358;2022-09-09T01:24:22;100148.56;;;14.45
72278;BMP280;61204;49.980;8.358;2022-09-09T01:27:02;100147.03;;;14.42
72278;BMP280;61204;49.980;8.358;2022-09-09T01:29:32;100144.38;;;14.44
72278;BMP280;61204;49.980;8.358;2022-09-09T01:32:35;100148.56;;;14.45
72278;BMP280;61204;49.980;8.358;2022-09-09T01:35:32;100142.94;;;14.43
72278;BMP280;61204;49.980;8.358;2022-09-09T01:38:03;100143.97;;;14.36
72278;BMP280;61204;49.980;8.358;2022-09-09T01:40:30;100143.06;;;14.32
72278;BMP280;61204;49.980;8.358;2022-09-09T01:42:57;100148.50;;;14.29
72278;BMP280;61204;49.980;8.358;2022-09-09T01:45:23;100149.94;;;14.31
72278;BMP280;61204;49.980;8.358;2022-09-09T01:47:52;100149.44;;;14.20
72278;BMP280;61204;49.980;8.358;2022-09-09T01:50:20;100149.94;;;14.17
72278;BMP280;61204;49.980;8.358;2022-09-09T01:52:50;100143.31;;;14.22
72278;BMP280;61204;49.980;8.358;2022-09-09T02:02:07;100143.81;;;14.18
72278;BMP280;61204;49.980;8.358;2022-09-09T02:04:45;100166.69;;;14.21
72278;BMP280;61204;49.980;8.358;2022-09-09T02:07:28;100169.94;;;14.17
72278;BMP280;61204;49.980;8.358;2022-09-09T02:10:28;100163.84;;;14.19
72278;BMP280;61204;49.980;8.358;2022-09-09T02:13:08;100163.31;;;14.22
72278;BMP280;61204;49.980;8.358;2022-09-09T02:16:01;100166.56;;;14.33
72278;BMP280;61204;49.980;8.358;2022-09-09T02:19:02;100156.34;;;14.35
72278;BMP280;61204;49.980;8.358;2022-09-09T02:21:38;100156.78;;;14.29
72278;BMP280;61204;49.980;8.358;2022-09-09T02:24:11;100161.53;;;14.29
72278;BMP280;61204;49.980;8.358;2022-09-09T02:26:45;100160.78;;;14.26
72278;BMP280;61204;49.980;8.358;2022-09-09T02:29:38;100166.06;;;14.22
72278;BMP280;61204;49.980;8.358;2022-09-09T02:32:15;100169.03;;;14.26
72278;BMP280;61204;49.980;8.358;2022-09-09T02:34:49;100163.91;;;14.35
72278;BMP280;61204;49.980;8.358;2022-09-09T02:37:24;100164.53;;;14.33
72278;BMP280;61204;49.980;8.358;2022-09-09T02:40:00;100160.44;;;14.34
72278;BMP280;61204;49.980;8.358;2022-09-09T02:42:27;100163.53;;;14.26
72278;BMP280;61204;49.980;8.358;2022-09-09T02:44:53;100165.25;;;14.20
72278;BMP280;61204;49.980;8.358;2022-09-09T02:47:33;100162.31;;;14.16
72278;BMP280;61204;49.980;8.358;2022-09-09T02:52:50;100161.13;;;14.35
72278;BMP280;61204;49.980;8.358;2022-09-09T02:56:21;100163.22;;;14.34
72278;BMP280;61204;49.980;8.358;2022-09-09T02:58:52;100162.28;;;14.29
72278;BMP280;61204;49.980;8.358;2022-09-09T03:01:19;100161.03;;;14.33
72278;BMP280;61204;49.980;8.358;2022-09-09T03:03:46;100151.66;;;14.38
72278;BMP280;61204;49.980;8.358;2022-09-09T03:06:13;100148.78;;;14.36
72278;BMP280;61204;49.980;8.358;2022-09-09T03:08:39;100150.63;;;14.31
72278;BMP280;61204;49.980;8.358;2022-09-09T03:11:07;100149.63;;;14.24
72278;BMP280;61204;49.980;8.358;2022-09-09T03:13:39;100148.53;;;14.16
72278;BMP280;61204;49.980;8.358;2022-09-09T03:16:04;100149.66;;;14.11
72278;BMP280;61204;49.980;8.358;2022-09-09T03:18:30;100145.25;;;14.06
72278;BMP280;61204;49.980;8.358;2022-09-09T03:20:57;100149.03;;;13.98
72278;BMP280;61204;49.980;8.358;2022-09-09T03:23:24;100159.28;;;13.96
72278;BMP280;61204;49.980;8.358;2022-09-09T03:25:51;100154.94;;;14.20
72278;BMP280;61204;49.980;8.358;2022-09-09T03:28:18;100163.59;;;14.28
72278;BMP280;61204;49.980;8.358;2022-09-09T03:30:45;100175.44;;;14.31
72278;BMP280;61204;49.980;8.358;2022-09-09T03:33:11;100177.19;;;14.38
72278;BMP280;61204;49.980;8.358;2022-09-09T03:35:37;100165.63;;;14.42
72278;BMP280;61204;49.980;8.358;2022-09-09T03:38:04;100164.81;;;14.39
72278;BMP280;61204;49.980;8.358;2022-09-09T03:40:30;100169.50;;;14.37
72278;BMP280;61204;49.980;8.358;2022-09-09T03:42:56;100166.88;;;14.39
72278;BMP280;61204;49.980;8.358;2022-09-09T03:45:22;100175.94;;;14.41
72278;BMP280;61204;49.980;8.358;2022-09-09T03:47:48;100170.97;;;14.38
72278;BMP280;61204;49.980;8.358;2022-09-09T03:50:15;100166.44;;;14.44
72278;BMP280;61204;49.980;8.358;2022-09-09T03:52:43;100169.41;;;14.48
72278;BMP280;61204;49.980;8.358;2022-09-09T03:55:09;100171.72;;;14.54
72278;BMP280;61204;49.980;8.358;2022-09-09T03:57:35;100175.72;;;14.51
72278;BMP280;61204;49.980;8.358;2022-09-09T04:00:06;100164.59;;;14.49
72278;BMP280;61204;49.980;8.358;2022-09-09T04:02:35;100161.03;;;14.46
72278;BMP280;61204;49.980;8.358;2022-09-09T04:05:01;100154.38;;;14.51
72278;BMP280;61204;49.980;8.358;2022-09-09T04:07:27;100149.56;;;14.52
72278;BMP280;61204;49.980;8.358;2022-09-09T04:09:57;100148.22;;;14.53
72278;BMP280;61204;49.980;8.358;2022-09-09T04:12:25;100152.09;;;14.48
72278;BMP280;61204;49.980;8.358;2022-09-09T04:14:52;100144.47;;;14.46
72278;BMP280;61204;49.980;8.358;2022-09-09T04:17:17;100144.66;;;14.50
72278;BMP280;61204;49.980;8.358;2022-09-09T04:19:43;100144.25;;;14.56
72278;BMP280;61204;49.980;8.358;2022-09-09T04:22:09;100147.78;;;14.58
72278;BMP280;61204;49.980;8.358;2022-09-09T04:24:35;100136.69;;;14.56
72278;BMP280;61204;49.980;8.358;2022-09-09T04:27:01;100131.00;;;14.68
72278;BMP280;61204;49.980;8.358;2022-09-09T04:29:26;100142.66;;;14.67
72278;BMP280;61204;49.980;8.358;2022-09-09T04:31:52;100146.75;;;14.66
72278;BMP280;61204;49.980;8.358;2022-09-09T04:34:18;100146.44;;;14.59
72278;BMP280;61204;49.980;8.358;2022-09-09T04:36:45;100145.56;;;14.55
72278;BMP280;61204;49.980;8.358;2022-09-09T04:39:11;100136.22;;;14.46
72278;BMP280;61204;49.980;8.358;2022-09-09T04:41:36;100144.19;;;14.40
72278;BMP280;61204;49.980;8.358;2022-09-09T04:44:02;100145.44;;;14.37
72278;BMP280;61204;49.980;8.358;2022-09-09T04:46:28;100150.50;;;14.29
72278;BMP280;61204;49.980;8.358;2022-09-09T04:48:54;100159.94;;;14.24
72278;BMP280;61204;49.980;8.358;2022-09-09T04:51:21;100165.88;;;14.18
72278;BMP280;61204;49.980;8.358;2022-09-09T04:53:46;100158.84;;;14.15
72278;BMP280;61204;49.980;8.358;2022-09-09T04:56:16;100158.03;;;14.13
72278;BMP280;61204;49.980;8.358;2022-09-09T04:58:43;100153.75;;;14.10
72278;BMP280;61204;49.980;8.358;2022-09-09T05:01:13;100159.34;;;14.12
72278;BMP280;61204;49.980;8.358;2022-09-09T05:03:44;100161.47;;;14.13
72278;BMP280;61204;49.980;8.358;2022-09-09T05:06:17;100171.28;;;14.16
72278;BMP280;61204;49.980;8.358;2022-09-09T05:08:45;100174.69;;;14.15
72278;BMP280;61204;49.980;8.358;2022-09-09T05:11:24;100180.38;;;14.19
72278;BMP280;61204;49.980;8.358;2022-09-09T05:13:53;100184.44;;;14.18
72278;BMP280;61204;49.980;8.358;2022-09-09T05:16:20;100184.25;;;14.14
72278;BMP280;61204;49.980;8.358;2022-09-09T05:18:48;100180.06;;;14.13
72278;BMP280;61204;49.980;8.358;2022-09-09T05:21:17;100180.19;;;14.15
72278;BMP280;61204;49.980;8.358;2022-09-09T05:23:45;100195.47;;;14.18
72278;BMP280;61204;49.980;8.358;2022-09-09T05:26:16;100185.91;;;14.19
72278;BMP280;61204;49.980;8.358;2022-09-09T05:28:46;100194.25;;;14.21
72278;BMP280;61204;49.980;8.358;2022-09-09T05:31:16;100204.47;;;14.18
72278;BMP280;61204;49.980;8.358;2022-09-09T05:33:44;100201.09;;;14.20
72278;BMP280;61204;49.980;8.358;2022-09-09T05:36:19;100197.03;;;14.21
72278;BMP280;61204;49.980;8.358;2022-09-09T05:38:48;100208.81;;;14.51
72278;BMP280;61204;49.980;8.358;2022-09-09T05:41:15;100202.09;;;14.83
72278;BMP280;61204;49.980;8.358;2022-09-09T05:43:43;100192.03;;;14.90
72278;BMP280;61204;49.980;8.358;2022-09-09T05:46:12;100196.81;;;14.90
72278;BMP280;61204;49.980;8.358;2022-09-09T05:48:43;100194.19;;;14.92
72278;BMP280;61204;49.980;8.358;2022-09-09T05:51:17;100203.47;;;14.98
72278;BMP280;61204;49.980;8.358;2022-09-09T05:53:48;100201.72;;;15.21
72278;BMP280;61204;49.980;8.358;2022-09-09T05:56:19;100201.47;;;15.62
72278;BMP280;61204;49.980;8.358;2022-09-09T05:58:50;100202.13;;;15.94
72278;BMP280;61204;49.980;8.358;2022-09-09T06:01:27;100205.13;;;16.33
72278;BMP280;61204;49.980;8.358;2022-09-09T06:03:56;100203.78;;;16.70
72278;BMP280;61204;49.980;8.358;2022-09-09T06:06:27;100204.53;;;17.08
72278;BMP280;61204;49.980;8.358;2022-09-09T06:09:02;100207.63;;;17.36
72278;BMP280;61204;49.980;8.358;2022-09-09T06:11:32;100210.41;;;17.36
72278;BMP280;61204;49.980;8.358;2022-09-09T06:14:01;100211.31;;;17.23
72278;BMP280;61204;49.980;8.358;2022-09-09T06:16:29;100210.88;;;17.11
72278;BMP280;61204;49.980;8.358;2022-09-09T06:18:58;100207.94;;;17.07
72278;BMP280;61204;49.980;8.358;2022-09-09T06:21:30;100206.72;;;16.92
72278;BMP280;61204;49.980;8.358;2022-09-09T06:24:04;100214.53;;;16.98
72278;BMP280;61204;49.980;8.358;2022-09-09T06:26:34;100209.31;;;17.06
72278;BMP280;61204;49.980;8.358;2022-09-09T06:29:06;100220.41;;;17.06
72278;BMP280;61204;49.980;8.358;2022-09-09T06:31:34;100215.53;;;17.24
72278;BMP280;61204;49.980;8.358;2022-09-09T06:34:04;100224.44;;;17.40
72278;BMP280;61204;49.980;8.358;2022-09-09T06:36:37;100224.78;;;17.70
72278;BMP280;61204;49.980;8.358;2022-09-09T06:39:11;100215.81;;;18.13
72278;BMP280;61204;49.980;8.358;2022-09-09T06:41:37;100209.16;;;18.01
72278;BMP280;61204;49.980;8.358;2022-09-09T06:44:04;100208.59;;;18.04
72278;BMP280;61204;49.980;8.358;2022-09-09T06:46:30;100208.44;;;18.00
72278;BMP280;61204;49.980;8.358;2022-09-09T06:48:58;100207.09;;;18.01
72278;BMP280;61204;49.980;8.358;2022-09-09T06:51:30;100205.91;;;17.87
72278;BMP280;61204;49.980;8.358;2022-09-09T06:54:00;100197.28;;;17.98
72278;BMP280;61204;49.980;8.358;2022-09-09T06:56:29;100201.91;;;17.92
72278;BMP280;61204;49.980;8.358;2022-09-09T06:59:02;100208.31;;;17.76
72278;BMP280;61204;49.980;8.358;2022-09-09T07:01:36;100215.81;;;17.72
72278;BMP280;61204;49.980;8.358;2022-09-09T07:04:17;100211.97;;;17.81
72278;BMP280;61204;49.980;8.358;2022-09-09T07:06:45;100207.00;;;17.77
72278;BMP280;61204;49.980;8.358;2022-09-09T07:09:13;100209.75;;;17.97
72278;BMP280;61204;49.980;8.358;2022-09-09T07:11:46;100208.69;;;17.87
72278;BMP280;61204;49.980;8.358;2022-09-09T07:14:17;100216.72;;;17.98
72278;BMP280;61204;49.980;8.358;2022-09-09T07:16:46;100210.53;;;18.00
72278;BMP280;61204;49.980;8.358;2022-09-09T07:19:13;100215.41;;;18.01
72278;BMP280;61204;49.980;8.358;2022-09-09T07:21:39;100204.97;;;18.22
72278;BMP280;61204;49.980;8.358;2022-09-09T07:24:08;100211.94;;;18.44
72278;BMP280;61204;49.980;8.358;2022-09-09T07:26:36;100210.84;;;18.54
72278;BMP280;61204;49.980;8.358;2022-09-09T07:29:04;100207.47;;;18.57
72278;BMP280;61204;49.980;8.358;2022-09-09T07:31:33;100211.31;;;18.46
72278;BMP280;61204;49.980;8.358;2022-09-09T07:34:03;100212.66;;;18.45
72278;BMP280;61204;49.980;8.358;2022-09-09T07:36:37;100223.56;;;18.61
72278;BMP280;61204;49.980;8.358;2022-09-09T07:39:12;100227.09;;;18.63
72278;BMP280;61204;49.980;8.358;2022-09-09T07:41:46;100233.84;;;18.56
72278;BMP280;61204;49.980;8.358;2022-09-09T07:44:20;100223.25;;;18.51
72278;BMP280;61204;49.980;8.358;2022-09-09T07:46:50;100223.81;;;18.69
72278;BMP280;61204;49.980;8.358;2022-09-09T07:49:17;100235.28;;;19.05
72278;BMP280;61204;49.980;8.358;2022-09-09T07:51:46;100242.75;;;18.98
72278;BMP280;61204;49.980;8.358;2022-09-09T07:54:18;100242.59;;;19.18
72278;BMP280;61204;49.980;8.358;2022-09-09T07:56:49;100233.63;;;19.46
72278;BMP280;61204;49.980;8.358;2022-09-09T07:59:20;100244.25;;;19.53
72278;BMP280;61204;49.980;8.358;2022-09-09T08:01:49;100244.72;;;19.44
72278;BMP280;61204;49.980;8.358;2022-09-09T08:04:22;100238.00;;;19.53
72278;BMP280;61204;49.980;8.358;2022-09-09T08:06:59;100243.22;;;19.66
72278;BMP280;61204;49.980;8.358;2022-09-09T08:09:28;100242.19;;;19.54
72278;BMP280;61204;49.980;8.358;2022-09-09T08:11:57;100236.63;;;20.08
72278;BMP280;61204;49.980;8.358;2022-09-09T08:14:52;100244.03;;;20.89
72278;BMP280;61204;49.980;8.358;2022-09-09T08:17:36;100238.25;;;21.13
72278;BMP280;61204;49.980;8.358;2022-09-09T08:20:05;100242.13;;;21.00
72278;BMP280;61204;49.980;8.358;2022-09-09T08:22:35;100245.13;;;20.14
72278;BMP280;61204;49.980;8.358;2022-09-09T08:25:04;100243.53;;;20.07
72278;BMP280;61204;49.980;8.358;2022-09-09T08:27:32;100252.66;;;20.09
72278;BMP280;61204;49.980;8.358;2022-09-09T08:29:58;100254.38;;;19.94
72278;BMP280;61204;49.980;8.358;2022-09-09T08:32:26;100256.94;;;20.14
72278;BMP280;61204;49.980;8.358;2022-09-09T08:34:55;100254.50;;;20.28
72278;BMP280;61204;49.980;8.358;2022-09-09T08:37:31;100254.59;;;20.33
72278;BMP280;61204;49.980;8.358;2022-09-09T08:40:12;100253.50;;;20.16
72278;BMP280;61204;49.980;8.358;2022-09-09T08:42:58;100248.38;;;20.06
72278;BMP280;61204;49.980;8.358;2022-09-09T08:53:24;100247.59;;;20.29
72278;BMP280;61204;49.980;8.358;2022-09-09T08:56:21;100244.81;;;20.29
72278;BMP280;61204;49.980;8.358;2022-09-09T08:59:28;100248.75;;;20.20
72278;BMP280;61204;49.980;8.358;2022-09-09T09:02:25;100246.44;;;20.11
72278;BMP280;61204;49.980;8.358;2022-09-09T09:05:34;100249.34;;;20.17
72278;BMP280;61204;49.980;8.358;2022-09-09T09:09:49;100247.94;;;20.46
72278;BMP280;61204;49.980;8.358;2022-09-09T09:12:44;100248.31;;;20.32
72278;BMP280;61204;49.980;8.358;2022-09-09T09:15:23;100248.97;;;20.01
72278;BMP280;61204;49.980;8.358;2022-09-09T09:17:57;100250.06;;;20.17
72278;BMP280;61204;49.980;8.358;2022-09-09T09:24:47;100243.00;;;20.74
72278;BMP280;61204;49.980;8.358;2022-09-09T09:28:16;100235.63;;;22.01
72278;BMP280;61204;49.980;8.358;2022-09-09T09:31:30;100237.72;;;22.49
72278;BMP280;61204;49.980;8.358;2022-09-09T09:34:26;100247.66;;;23.16
72278;BMP280;61204;49.980;8.358;2022-09-09T09:38:35;100235.00;;;23.84
72278;BMP280;61204;49.980;8.358;2022-09-09T09:42:31;100230.53;;;24.60
72278;BMP280;61204;49.980;8.358;2022-09-09T12:02:48;100195.72;;;22.97
72278;BMP280;61204;49.980;8.358;2022-09-09T12:05:17;100193.78;;;22.54
72278;BMP280;61204;49.980;8.358;2022-09-09T12:07:56;100198.22;;;22.20
72278;BMP280;61204;49.980;8.358;2022-09-09T12:10:34;100202.81;;;22.02
72278;BMP280;61204;49.980;8.358;2022-09-09T12:13:25;100201.53;;;21.65
72278;BMP280;61204;49.980;8.358;2022-09-09T12:15:57;100212.84;;;20.33
72278;BMP280;61204;49.980;8.358;2022-09-09T12:18:38;100216.34;;;19.23
72278;BMP280;61204;49.980;8.358;2022-09-09T12:21:31;100228.59;;;18.90
72278;BMP280;61204;49.980;8.358;2022-09-09T12:24:13;100223.38;;;18.55
72278;BMP280;61204;49.980;8.358;2022-09-09T12:27:08;100221.38;;;18.35
72278;BMP280;61204;49.980;8.358;2022-09-09T12:30:07;100210.66;;;18.26
72278;BMP280;61204;49.980;8.358;2022-09-09T12:32:39;100217.56;;;18.25
72278;BMP280;61204;49.980;8.358;2022-09-09T12:35:13;100214.06;;;18.24
72278;BMP280;61204;49.980;8.358;2022-09-09T12:37:57;100202.84;;;18.20
72278;BMP280;61204;49.980;8.358;2022-09-09T12:40:31;100212.53;;;18.19
72278;BMP280;61204;49.980;8.358;2022-09-09T12:43:02;100214.84;;;18.05
72278;BMP280;61204;49.980;8.358;2022-09-09T12:45:45;100218.72;;;17.76
72278;BMP280;61204;49.980;8.358;2022-09-09T12:48:12;100210.94;;;17.50
72278;BMP280;61204;49.980;8.358;2022-09-09T12:50:49;100218.66;;;17.34
72278;BMP280;61204;49.980;8.358;2022-09-09T12:53:21;100210.13;;;17.28
72278;BMP280;61204;49.980;8.358;2022-09-09T12:56:04;100218.88;;;17.20
72278;BMP280;61204;49.980;8.358;2022-09-09T12:58:33;100205.63;;;17.19
72278;BMP280;61204;49.980;8.358;2022-09-09T13:01:04;100214.72;;;17.41
72278;BMP280;61204;49.980;8.358;2022-09-09T13:03:33;100205.56;;;17.57
72278;BMP280;61204;49.980;8.358;2022-09-09T13:06:16;100202.41;;;18.28
72278;BMP280;61204;49.980;8.358;2022-09-09T13:08:55;100203.72;;;18.94
72278;BMP280;61204;49.980;8.358;2022-09-09T13:14:58;100204.16;;;20.48
72278;BMP280;61204;49.980;8.358;2022-09-09T13:17:26;100203.66;;;20.90
72278;BMP280;61204;49.980;8.358;2022-09-09T13:19:55;100199.44;;;21.25
72278;BMP280;61204;49.980;8.358;2022-09-09T13:22:37;100185.44;;;22.05
72278;BMP280;61204;49.980;8.358;2022-09-09T13:27:37;100183.31;;;23.18
72278;BMP280;61204;49.980;8.358;2022-09-09T13:30:26;100174.13;;;23.06
72278;BMP280;61204;49.980;8.358;2022-09-09T13:33:20;100181.41;;;23.37
72278;BMP280;61204;49.980;8.358;2022-09-09T13:36:08;100177.75;;;23.23
72278;BMP280;61204;49.980;8.358;2022-09-09T13:38:59;100172.09;;;23.12
72278;BMP280;61204;49.980;8.358;2022-09-09T13:41:32;100188.09;;;22.45
72278;BMP280;61204;49.980;8.358;2022-09-09T13:44:27;100199.44;;;22.09
72278;BMP280;61204;49.980;8.358;2022-09-09T13:47:06;100195.25;;;21.64
72278;BMP280;61204;49.980;8.358;2022-09-09T13:53:03;100195.31;;;20.92
72278;BMP280;61204;49.980;8.358;2022-09-09T13:55:31;100190.06;;;20.74
72278;BMP280;61204;49.980;8.358;2022-09-09T13:58:05;100195.69;;;20.76
72278;BMP280;61204;49.980;8.358;2022-09-09T14:01:08;100200.25;;;20.96
72278;BMP280;61204;49.980;8.358;2022-09-09T14:04:31;100192.84;;;20.72
72278;BMP280;61204;49.980;8.358;2022-09-09T14:12:11;100198.03;;;20.88
72278;BMP280;61204;49.980;8.358;2022-09-09T17:23:23;100232.94;;;17.86
72278;BMP280;61204;49.980;8.358;2022-09-09T17:25:57;100221.44;;;17.54
72278;BMP280;61204;49.980;8.358;2022-09-09T17:28:23;100225.28;;;17.45
72278;BMP280;61204;49.980;8.358;2022-09-09T17:30:58;100224.75;;;17.31
72278;BMP280;61204;49.980;8.358;2022-09-09T17:33:30;100226.44;;;17.20
72278;BMP280;61204;49.980;8.358;2022-09-09T17:36:00;100225.13;;;17.03
72278;BMP280;61204;49.980;8.358;2022-09-09T17:38:31;100230.91;;;16.91
72278;BMP280;61204;49.980;8.358;2022-09-09T17:41:02;100240.16;;;16.80
72278;BMP280;61204;49.980;8.358;2022-09-09T17:43:48;100238.84;;;16.63
72278;BMP280;61204;49.980;8.358;2022-09-09T17:46:21;100235.03;;;16.55
72278;BMP280;61204;49.980;8.358;2022-09-09T17:48:58;100231.09;;;16.42
72278;BMP280;61204;49.980;8.358;2022-09-09T17:51:29;100243.38;;;16.39
72278;BMP280;61204;49.980;8.358;2022-09-09T17:54:00;100243.69;;;16.29
72278;BMP280;61204;49.980;8.358;2022-09-09T17:56:33;100253.97;;;16.27
72278;BMP280;61204;49.980;8.358;2022-09-09T17:59:02;100257.34;;;16.25
72278;BMP280;61204;49.980;8.358;2022-09-09T18:01:36;100274.09;;;16.29
72278;BMP280;61204;49.980;8.358;2022-09-09T18:04:07;100277.97;;;16.22
72278;BMP280;61204;49.980;8.358;2022-09-09T18:06:40;100276.72;;;16.25
72278;BMP280;61204;49.980;8.358;2022-09-09T18:09:13;100272.09;;;16.30
72278;BMP280;61204;49.980;8.358;2022-09-09T18:11:47;100271.53;;;16.18
72278;BMP280;61204;49.980;8.358;2022-09-09T18:14:19;100276.56;;;16.21
72278;BMP280;61204;49.980;8.358;2022-09-09T18:16:51;100270.84;;;16.17
72278;BMP280;61204;49.980;8.358;2022-09-09T18:19:21;100282.38;;;16.12
72278;BMP280;61204;49.980;8.358;2022-09-09T18:21:50;100288.13;;;16.00
72278;BMP280;61204;49.980;8.358;2022-09-09T18:24:18;100286.75;;;16.01
72278;BMP280;61204;49.980;8.358;2022-09-09T18:26:46;100291.59;;;16.00
72278;BMP280;61204;49.980;8.358;2022-09-09T18:29:17;100300.25;;;15.93
72278;BMP280;61204;49.980;8.358;2022-09-09T18:31:54;100299.22;;;16.02
72278;BMP280;61204;49.980;8.358;2022-09-09T18:34:21;100302.72;;;16.02
72278;BMP280;61204;49.980;8.358;2022-09-09T18:36:57;100317.06;;;15.99
72278;BMP280;61204;49.980;8.358;2022-09-09T18:39:48;100320.03;;;15.87
72278;BMP280;61204;49.980;8.358;2022-09-09T18:42:14;100320.03;;;15.87
72278;BMP280;61204;49.980;8.358;2022-09-09T18:44:43;100319.94;;;15.85
72278;BMP280;61204;49.980;8.358;2022-09-09T18:47:12;100324.66;;;15.83
72278;BMP280;61204;49.980;8.358;2022-09-09T18:49:53;100316.00;;;15.74
72278;BMP280;61204;49.980;8.358;2022-09-09T18:52:23;100336.16;;;15.61
72278;BMP280;61204;49.980;8.358;2022-09-09T18:55:04;100329.69;;;15.57
72278;BMP280;61204;49.980;8.358;2022-09-09T18:57:32;100343.63;;;15.59
72278;BMP280;61204;49.980;8.358;2022-09-09T18:59:59;100344.38;;;15.45
72278;BMP280;61204;49.980;8.358;2022-09-09T19:02:26;100350.25;;;15.38
72278;BMP280;61204;49.980;8.358;2022-09-09T19:04:52;100357.97;;;15.26
72278;BMP280;61204;49.980;8.358;2022-09-09T19:07:18;100350.53;;;15.14
72278;BMP280;61204;49.980;8.358;2022-09-09T19:09:45;100343.28;;;15.07
72278;BMP280;61204;49.980;8.358;2022-09-09T19:12:11;100352.91;;;15.06
72278;BMP280;61204;49.980;8.358;2022-09-09T19:14:37;100352.72;;;15.02
72278;BMP280;61204;49.980;8.358;2022-09-09T19:17:08;100360.69;;;14.96
72278;BMP280;61204;49.980;8.358;2022-09-09T19:19:37;100355.00;;;14.92
72278;BMP280;61204;49.980;8.358;2022-09-09T19:22:06;100356.72;;;14.85
72278;BMP280;61204;49.980;8.358;2022-09-09T19:24:36;100366.25;;;14.82
72278;BMP280;61204;49.980;8.358;2022-09-09T19:27:04;100361.97;;;14.79
72278;BMP280;61204;49.980;8.358;2022-09-09T19:29:32;100360.31;;;14.74
72278;BMP280;61204;49.980;8.358;2022-09-09T19:32:03;100360.53;;;14.65
72278;BMP280;61204;49.980;8.358;2022-09-09T19:34:29;100353.81;;;14.68
72278;BMP280;61204;49.980;8.358;2022-09-09T19:36:56;100359.91;;;14.66
72278;BMP280;61204;49.980;8.358;2022-09-09T19:39:22;100356.97;;;14.62
72278;BMP280;61204;49.980;8.358;2022-09-09T19:41:48;100352.34;;;14.67
72278;BMP280;61204;49.980;8.358;2022-09-09T19:44:15;100357.69;;;14.63
72278;BMP280;61204;49.980;8.358;2022-09-09T19:46:42;100347.06;;;14.57
72278;BMP280;61204;49.980;8.358;2022-09-09T19:49:11;100350.94;;;14.52
72278;BMP280;61204;49.980;8.358;2022-09-09T19:51:39;100351.44;;;14.48
72278;BMP280;61204;49.980;8.358;2022-09-09T19:54:10;100352.03;;;14.47
72278;BMP280;61204;49.980;8.358;2022-09-09T19:56:39;100349.94;;;14.45
72278;BMP280;61204;49.980;8.358;2022-09-09T19:59:09;100346.47;;;14.45
72278;BMP280;61204;49.980;8.358;2022-09-09T20:01:39;100349.69;;;14.41
72278;BMP280;61204;49.980;8.358;2022-09-09T20:04:11;100353.91;;;14.42
72278;BMP280;61204;49.980;8.358;2022-09-09T20:06:41;100355.75;;;14.38
72278;BMP280;61204;49.980;8.358;2022-09-09T20:09:11;100351.44;;;14.35
72278;BMP280;61204;49.980;8.358;2022-09-09T20:11:42;100347.75;;;14.30
72278;BMP280;61204;49.980;8.358;2022-09-09T20:14:10;100353.38;;;14.32
72278;BMP280;61204;49.980;8.358;2022-09-09T20:16:37;100351.22;;;14.31
72278;BMP280;61204;49.980;8.358;2022-09-09T20:19:06;100363.59;;;14.29
72278;BMP280;61204;49.980;8.358;2022-09-09T20:21:39;100365.53;;;14.27
72278;BMP280;61204;49.980;8.358;2022-09-09T20:24:18;100366.63;;;14.22
72278;BMP280;61204;49.980;8.358;2022-09-09T20:26:47;100368.78;;;14.23
72278;BMP280;61204;49.980;8.358;2022-09-09T20:29:14;100368.59;;;14.19
72278;BMP280;61204;49.980;8.358;2022-09-09T20:31:42;100369.09;;;14.16
72278;BMP280;61204;49.980;8.358;2022-09-09T20:34:11;100363.34;;;14.12
72278;BMP280;61204;49.980;8.358;2022-09-09T20:36:40;100363.88;;;14.08
72278;BMP280;61204;49.980;8.358;2022-09-09T20:39:12;100360.19;;;14.04
72278;BMP280;61204;49.980;8.358;2022-09-09T20:41:44;100363.88;;;14.08
72278;BMP280;61204;49.980;8.358;2022-09-09T20:44:17;100362.81;;;14.02
72278;BMP280;61204;49.980;8.358;2022-09-09T20:46:53;100366.78;;;13.98
72278;BMP280;61204;49.980;8.358;2022-09-09T20:49:24;100374.03;;;13.92
72278;BMP280;61204;49.980;8.358;2022-09-09T20:51:51;100375.84;;;13.87
72278;BMP280;61204;49.980;8.358;2022-09-09T20:54:25;100380.75;;;13.89
72278;BMP280;61204;49.980;8.358;2022-09-09T20:56:55;100372.50;;;13.89